Hauptseite
METAR-TAF:

METAR-TAF

Flughäfen :

Flughafen Lübeck

Lübeck, Deutschland

Breite: 53-49N, Länge: 010-42E, Höhe: 14 m

Beobachtung

Neuester Wetterbericht von vor 9 Stunden und 31 Minuten, um 18:50 UTC
Wind 5 kt aus Süd
Temperatur 14°C
Luftfeuchtigkeit 72%
Luftdruck 1025 hPa
Sichtweite: 9000 m
Durchbrochene Bewölkung in der Höhe von 3000 ft

METAR: EDHL 211850Z 18005KT 9000 BKN030 14/09 Q1025

Zeit: 06:21 (04:21 UTC)

Prognose

Neuester Wetterbericht von vor 11 Stunden und 14 Minuten, um 17:07 UTC
Gültige Prognose vom 21 um 18 UTC bis 21 um 21 UTC
Wind 4 kt aus Süd/Südwest
Sichtweite: 8000 m
Durchbrochene Bewölkung in der Höhe von 3500 ft

TAF: EDHL 211707Z 2118/2121 20004KT 8000 BKN035

Wetterbeobachtungen und Prognosen von mehr als 4000 Flughäfen (METAR und TAF Bericht).

Die verfügbaren Stationen werden durch gelbe und rote Markierungen auf der Karte dargestellt.

Führen Sie die Maus auf sie, um den Namen der Station zu sehen.

Darauf klicken, um die Beobachtung von Wetterbeobachtungen und Prognosen zu sehen.

Um die Karte zu ändern : klicken Sie auf den grünen Tasten mit einem schwarzen Kreuz Zum Vergrößern, auf den grünen Button mit einem Gedankenstrich zu verkleinern, oder auf die grünen Pfeile für benachbarte Karten.


METAR-TAF: